Frey Ranch - Fallon, Nevada Weather observations

Data are for observation ending at time listed.
 Day   Time    Ave.   Ave.  Ave.  Vector   Max.   Stn.    Total    Solar   Ave.  
  of    of     Air    Rel.  Wind   Wind    Wind   Baro.  Precip.   Rad.    Soil  
Year   Day     Temp.  Hum.  Speed  Dir.    Gust   Pres.                    Temp. 
2017   (PST)    F      %     mph   deg.    mph     mb.     in.     W/m2     F   
------------------------------------------------------------------------------
  35   21:00   46.6    44    2.8   328      4.6   999.0    0.00       0    67.9
  35   21:10   46.6    44    3.3   350      6.4   999.0    0.00       0    67.9
  35   21:20   46.8    43    2.6    77      5.3   999.0    0.00       0    67.9
  35   21:30   47.2    41    1.7   110      2.9   999.0    0.00       0    67.8
  35   21:40   46.6    41    3.1   245      6.9   999.0    0.00       0    67.8
  35   21:50   44.8    45    4.9   228      8.1   999.0    0.00       0    67.8
  35   22:00   43.4    48    1.6   328      3.3   999.0    0.00       0    67.7
  35   22:10   43.7    47    0.9   108      2.0   999.0    0.00       0    67.7
  35   22:20   42.3    50    1.2    72      3.0   999.0    0.00       0    67.7
  35   22:30   39.9    55    3.4   291      4.6   999.0    0.00       0    67.6
  35   22:40   40.5    53    3.6   285      5.2   999.0    0.00       0    67.5
  35   22:50   40.2    54    2.4   116      5.4   999.0    0.00       0    67.4
  35   23:00   39.1    61    2.5    65      4.6   999.0    0.00       0    67.4
  35   23:10   40.0    59    2.2    65      5.1   999.0    0.00       0    67.4
  35   23:20   42.8    49    2.0    26      2.9   999.0    0.00       0    67.3
  35   23:30   43.2    49    0.0    19      0.6   999.0    0.00       0    67.3
  35   23:40   41.3    52    1.7   247      3.0   999.0    0.00       0    67.3
  35   23:50   39.4    55    4.6   158      8.7   999.0    0.00       0    67.2
  36    0:00   35.5    65    2.9   172      4.3   999.0    0.00       0    67.2
  36    0:10   35.3    67    1.5   203      3.1   999.0    0.00       0    67.2
  36    0:20   37.0    64    2.2   160      4.1   999.0    0.00       0    67.1
  36    0:30   37.3    63    0.6   278      1.4   999.0    0.00       0    67.0
  36    0:40   36.8    63    1.9   218      3.1   999.0    0.00       0    66.9
  36    0:50   35.5    67    1.9   340      5.8   999.0    0.00       0    66.8
  36    1:00   34.6    69    2.4    57      6.0   999.0    0.00       0    66.8
  36    1:10   35.1    69    1.4    75      4.1   999.0    0.00       0    66.7
  36    1:20   34.9    70    1.3    77      3.0   999.0    0.00       0    66.7
  36    1:30   36.2    67    2.5    79      3.0   999.0    0.00       0    66.6
  36    1:40   36.4    65    2.1    59      4.2   999.0    0.00       0    66.5
  36    1:50   34.7    70    3.0    74      4.0   999.0    0.00       0    66.5
  36    2:00   33.4    72    2.6    98      3.5   999.0    0.00       0    66.5
  36    2:10   31.6    77    1.8    98      3.0   999.0    0.00       0    66.4
  36    2:20   32.7    76    2.0    89      2.9   999.0    0.00       0    66.3
  36    2:30   33.3    73    2.4    76      3.4   999.0    0.00       0    66.3
  36    2:40   34.5    70    1.9   100      2.7   999.0    0.00       0    66.2
  36    2:50   33.9    72    1.5    78      2.5   999.0    0.00       0    66.2
  36    3:00   32.6    72    0.1   339      1.1   999.0    0.00       0    66.1
  36    3:10   31.0    76    1.3   327      3.1   999.0    0.00       0    66.0
  36    3:20   31.0    78    0.0    30      0.8   999.0    0.00       0    66.0
  36    3:30   31.7    79    0.1   112      1.3   999.0    0.00       0    65.9
  36    3:40   33.6    77    1.6    98      2.7   999.0    0.00       0    65.8
  36    3:50   33.4    76    1.8    84      3.1   999.0    0.00       0    65.8
  36    4:00   32.2    77    0.5    55      2.5   999.0    0.00       0    65.7
  36    4:10   30.9    78    0.2    99      1.3   999.0    0.00       0    65.6
  36    4:20   30.7    80    0.2   350      1.8   999.0    0.00       0    65.6
  36    4:30   30.7    81    1.6   267      3.5   999.0    0.00       0    65.5
  36    4:40   29.5    81    3.1   240      4.6   999.0    0.00       0    65.5
  36    4:50   30.9    82    3.2   240      4.7   999.0    0.00       0    65.4
  36    5:00   32.2    81    1.8   230      3.0   999.0    0.00       0    65.4
  36    5:10   32.7    79    3.4   161      5.4   999.0    0.00       0    65.3
  36    5:20   32.4    79    2.9   162      5.0   999.0    0.00       0    65.3
  36    5:30   32.0    80    1.4   195      2.5   999.0    0.00       0    65.3
  36    5:40   31.6    79    2.0   163      3.4   999.0    0.00       0    65.2
  36    5:50   30.6    80    3.4   146      5.1   999.0    0.00       0    65.2
  36    6:00   32.0    80    4.0   176      7.1   999.0    0.00       0    65.2
  36    6:10   32.6    79    2.5   144      4.7   999.0    0.00       0    65.1
  36    6:20   32.7    78    1.1   176      3.3   999.0    0.00       0    65.1
  36    6:30   33.3    78    1.3   350      4.1   999.0    0.00       0    65.0
  36    6:40   32.9    77    2.0   291      3.8   999.0    0.00       0    65.0
  36    6:50   32.2    79    3.0   315      4.8   999.0    0.00       1    65.0
  36    7:00   32.9    77    3.2   328      3.9   999.0    0.00       2    65.0
  36    7:10   32.8    77    2.0   316      3.6   999.0    0.00       5    64.9
  36    7:20   33.8    76    1.4    71      4.3   999.0    0.00      12    64.9
  36    7:30   33.0    77    2.1   283      3.8   999.0    0.00      19    64.9
  36    7:40   33.0    78    1.7   300      2.5   999.0    0.00      42    64.8
  36    7:50   35.0    75    0.8   286      3.5   999.0    0.00      62    64.8
  36    8:00   35.0    76    2.8   315      4.6   999.0    0.00      68    64.8
  36    8:10   35.2    77    1.8   317      2.8   999.0    0.00      65    64.8
  36    8:20   35.9    76    1.6   178      2.7   999.0    0.00      71    64.8
  36    8:30   37.7    74    2.2   178      5.3   999.0    0.00      79    64.8
  36    8:40   42.0    65    8.7   149     13.0   999.0    0.00     100    64.9
  36    8:50   43.7    62    8.4   157     13.2   999.0    0.00     111    64.9
  36    9:00   43.5    63   10.9   138     16.2   999.0    0.00     123    65.0
  36    9:10   44.1    63    7.5   141     11.4   999.0    0.00     132    65.0
  36    9:20   45.0    60    7.0   151     11.7   999.0    0.00     146    65.0
  36    9:30   45.5    59   10.5   169     14.9   999.0    0.00     165    65.1
  36    9:40   45.9    58   11.8   172     16.6   999.0    0.00     157    65.1
  36    9:50   46.2    57   10.2   168     15.7   999.0    0.00     142    65.1
  36   10:00   46.5    55   12.4   169     18.7   999.0    0.00     126    65.1
  36   10:10   46.9    55   12.4   153     18.4   999.0    0.00     157    65.2
  36   10:20   47.3    54   11.9   158     15.8   999.0    0.00     174    65.2
  36   10:30   47.7    54    9.8   168     14.0   999.0    0.00     201    65.2
  36   10:40   48.6    52   10.4   166     14.4   999.0    0.00     203    65.2
  36   10:50   49.4    51   11.0   164     15.4   999.0    0.00     206    65.2
  36   11:00   49.7    50   12.2   166     18.4   999.0    0.00     195    65.2
  36   11:10   50.5    48   14.2   169     19.2   999.0    0.00     300    65.2
  36   11:20   51.8    45   14.7   170     19.3   999.0    0.00     349    65.2
  36   11:30   52.2    44   12.4   164     17.1   999.0    0.00     410    65.2
  36   11:40   53.4    43    9.9   170     15.1   999.0    0.00     567    65.2
  36   11:50   53.6    42    7.2   169     11.7   999.0    0.00     447    65.3
  36   12:00   54.1    40    8.0   167     12.4   999.0    0.00     355    65.3
  36   12:10   54.6    39    8.6   162     12.1   999.0    0.00     357    65.3
  36   12:20   54.8    39    8.6   154     13.4   999.0    0.00     326    64.9
  36   12:30   54.7    40    8.2   158     12.1   999.0    0.00     304    64.7
  36   12:40   54.9    40    8.8   150     15.5   999.0    0.00     315    64.6
  36   12:50   54.7    41    7.5   129     13.8   999.0    0.00     320    64.5
  36   13:00   55.1    41    6.7   127     10.9   999.0    0.00     281    64.5
  36   13:10   55.5    39    6.9   154     11.9   999.0    0.00     250    64.4
  36   13:20   55.9    39    7.7   155     12.2   999.0    0.00     232    64.4
  36   13:30   55.6    39    8.3   149     11.9   999.0    0.00     224    64.5
  36   13:40   55.6    39   10.0   146     13.6   999.0    0.00     238    64.6
  36   13:50   56.1    39   11.8   137     17.0   999.0    0.00     247    64.7
  36   14:00   55.7    40   11.4   113     17.5   999.0    0.00     248    64.5
  36   14:10   54.6    41    8.2   100     11.3   999.0    0.00     219    64.4
  36   14:20   55.0    42    7.8   100     10.8   999.0    0.00     186    64.3
  36   14:30   55.9    42    9.2   122     12.0   999.0    0.00     179    64.0
  36   14:40   56.4    40    8.2   170     11.6   999.0    0.00     155    63.9
  36   14:50   56.1    41    8.5   163     12.5   999.0    0.00     129    63.7
  36   15:00   55.6    41   12.7   142     17.6   999.0    0.00     118    63.6
  36   15:10   55.2    43   14.7   140     19.9   999.0    0.00     113    63.5
  36   15:20   54.7    44   15.6   143     22.6   999.0    0.00     111    63.4
  36   15:30   54.3    45   15.7   137     23.0   999.0    0.00     104    63.4
  36   15:40   54.0    46   15.3   135     20.9   999.0    0.00     115    63.3
  36   15:50   53.9    46   15.3   132     19.8   999.0    0.00     126    63.3
  36   16:00   53.7    45   13.7   134     18.5   999.0    0.00      91    63.2
  36   16:10   53.6    45   13.3   135     18.3   999.0    0.00     107    63.2
  36   16:20   53.7    45   11.1   138     16.3   999.0    0.00     117    63.2
  36   16:30   55.2    39   10.7   150     17.5   999.0    0.00     170    63.3
  36   16:40   57.1    33   13.1   156     19.2   999.0    0.00     162    63.2
  36   16:50   56.8    33   13.2   158     18.3   999.0    0.00      98    63.2
  36   17:00   55.8    34   11.6   157     17.8   999.0    0.00      64    63.2
  36   17:10   54.2    36    9.4   155     13.9   999.0    0.00      13    63.2
  36   17:20   52.4    40    8.5   140     14.1   999.0    0.00       5    63.2
  36   17:30   47.9    51    5.0   123      7.4   999.0    0.00       2    63.2
  36   17:40   46.4    54    5.6   112      8.2   999.0    0.00       0    63.1
  36   17:50   46.0    56    7.0   103      9.5   999.0    0.00       0    62.9
  36   18:00   46.6    54    7.9   104     10.8   999.0    0.00       0    62.8
  36   18:10   49.6    41    8.6   155     14.2   999.0    0.00       0    62.8
  36   18:20   50.1    42   11.5   148     16.1   999.0    0.00       0    62.7
  36   18:30   49.0    47   10.6   154     15.9   999.0    0.00       0    62.7
  36   18:40   48.3    50   10.7   158     16.5   999.0    0.00       0    62.7
  36   18:50   47.6    52   11.1   157     15.0   999.0    0.00       0    62.7
  36   19:00   47.7    51   12.2   155     16.4   999.0    0.00       0    62.7
  36   19:10   48.4    49   13.8   157     20.4   999.0    0.00       0    62.7
  36   19:20   47.9    51   13.9   158     20.4   999.0    0.00       0    62.7
  36   19:30   48.7    49   17.9   158     24.9   999.0    0.00       0    62.7
  36   19:40   49.0    48   17.8   161     23.5   999.0    0.00       0    62.8
  36   19:50   48.7    49   15.0   166     20.4   999.0    0.00       0    62.8
  36   20:00   48.5    48   15.5   168     22.1   999.0    0.00       0    62.8
  36   20:10   48.7    48   14.6   167     21.1   999.0    0.00       0    62.8
  36   20:20   48.7    47   13.7   166     19.0   999.0    0.00       0    62.8
  36   20:30   48.4    47   11.8   166     16.3   999.0    0.00       0    62.8
  36   20:40   48.8    46   14.3   171     20.3   999.0    0.00       0    62.7
  36   20:50   49.5    44   12.4   172     18.0   999.0    0.00       0    62.5

Return to Frey Ranch - Fallon, Nevada graphs page.


Western Regional Climate Center,wrcc@dri.edu